MOL Modern — V7VS6 — position and weather

sailwx.info

Track history (hours):
 
Tides and Currents Weather Stations Pressure Air Temp Water Temp Dewpoint Dewpoint Depression Visibility Wind Speed Wind Dir Waves Ship Positions

MOL Modern

Last reported at 2015-Aug-17 03:10 UTC. Time now 2015-Aug-30 14:03 UTC.
Position N 31°37' W 080°08'.
Warning: this ship's position is 13 days out of date.

Length 302 m; draft 11.3 m.

Type: Ship (hazmat cat A). MMSI: 538004203.

Date/timePositionNaut miles runAvg speedWind from/ knotsBaromVisibWave heightAir tempDewpointWater temp
2015-Aug-17 03:10N 31°37' W 080°08'  
2015-Aug-14 15:08N 31°56' W 080°22'813.1
2015-Aug-14 14:33N 31°56' W 080°31'1211.9
2015-Aug-14 13:33N 31°58' W 080°44'1110.7
2015-Aug-14 12:33N 32°03' W 080°56'7 6.9
2015-Aug-14 11:33N 32°05' W 081°04'4 4.3
2015-Aug-14 10:33N 32°07' W 081°08'0 0.3
2015-Aug-14 09:31N 32°08' W 081°08'0 0.0
2015-Aug-14 08:31N 32°08' W 081°08'0 0.0
2015-Aug-14 07:22N 32°08' W 081°08'0 0.0
2015-Aug-14 06:31N 32°08' W 081°08'0 0.0
2015-Aug-14 05:31N 32°08' W 081°08'0 0.0
2015-Aug-14 04:31N 32°08' W 081°08'0 0.0
2015-Aug-14 03:31N 32°08' W 081°08'0 0.0
2015-Aug-14 02:31N 32°08' W 081°08'0 0.0
2015-Aug-14 01:31N 32°08' W 081°08'0 0.0
2015-Aug-14 00:31N 32°08' W 081°08'0 0.0
2015-Aug-13 23:31N 32°08' W 081°08'0 0.0
2015-Aug-13 22:31N 32°08' W 081°08'0 0.0
2015-Aug-13 21:31N 32°08' W 081°08'0 0.0
2015-Aug-13 20:31N 32°08' W 081°08'0 0.0
2015-Aug-13 19:31N 32°08' W 081°08'0 0.0
2015-Aug-13 18:31N 32°08' W 081°08'0 0.0
2015-Aug-13 17:31N 32°08' W 081°08'0 0.0
2015-Aug-13 16:31N 32°08' W 081°08'0 0.0
2015-Aug-13 15:33N 32°08' W 081°08'2 1.7
2015-Aug-13 14:33N 32°06' W 081°07'4 3.9
2015-Aug-13 13:33N 32°05' W 081°03'8 7.8
2015-Aug-13 12:33N 32°02' W 080°54'1312.9
2015-Aug-13 11:34N 31°57' W 080°40'8 8.2
2015-Aug-13 10:33N 31°57' W 080°30'12 8.6
2015-Aug-13 09:12N 31°60' W 080°17'25516.3
2015-Aug-12 17:29N 34°18' W 076°01'1816.3
2015-Aug-12 16:23N 34°30' W 075°45'1616.9
2015-Aug-12 15:27N 34°41' W 075°31'135 4.2
2015-Aug-11 07:29N 36°55' W 075°54'6013.4
2015-Aug-11 03:03N 36°50' W 074°40'  
Track history (hours):
 
Tides and Currents Weather Stations Pressure Air Temp Water Temp Dewpoint Dewpoint Depression Visibility Wind Speed Wind Dir Waves Ship Positions

MOL Modern

Last reported at 2015-Aug-17 03:10 UTC. Time now 2015-Aug-30 14:03 UTC.
Position N 31°37' W 080°08'.
Warning: this ship's position is 13 days out of date.

Length 302 m; draft 11.3 m.

Type: Ship (hazmat cat A). MMSI: 538004203.

Date/timePositionNaut miles runAvg speedWind from/ knotsBaromVisibWave heightAir tempDewpointWater temp
2015-Aug-17 03:10N 31°37' W 080°08'  
2015-Aug-14 15:08N 31°56' W 080°22'813.1
2015-Aug-14 14:33N 31°56' W 080°31'1211.9
2015-Aug-14 13:33N 31°58' W 080°44'1110.7
2015-Aug-14 12:33N 32°03' W 080°56'7 6.9
2015-Aug-14 11:33N 32°05' W 081°04'4 4.3
2015-Aug-14 10:33N 32°07' W 081°08'0 0.3
2015-Aug-14 09:31N 32°08' W 081°08'0 0.0
2015-Aug-14 08:31N 32°08' W 081°08'0 0.0
2015-Aug-14 07:22N 32°08' W 081°08'0 0.0
2015-Aug-14 06:31N 32°08' W 081°08'0 0.0
2015-Aug-14 05:31N 32°08' W 081°08'0 0.0
2015-Aug-14 04:31N 32°08' W 081°08'0 0.0
2015-Aug-14 03:31N 32°08' W 081°08'0 0.0
2015-Aug-14 02:31N 32°08' W 081°08'0 0.0
2015-Aug-14 01:31N 32°08' W 081°08'0 0.0
2015-Aug-14 00:31N 32°08' W 081°08'0 0.0
2015-Aug-13 23:31N 32°08' W 081°08'0 0.0
2015-Aug-13 22:31N 32°08' W 081°08'0 0.0
2015-Aug-13 21:31N 32°08' W 081°08'0 0.0
2015-Aug-13 20:31N 32°08' W 081°08'0 0.0
2015-Aug-13 19:31N 32°08' W 081°08'0 0.0
2015-Aug-13 18:31N 32°08' W 081°08'0 0.0
2015-Aug-13 17:31N 32°08' W 081°08'0 0.0
2015-Aug-13 16:31N 32°08' W 081°08'0 0.0
2015-Aug-13 15:33N 32°08' W 081°08'2 1.7
2015-Aug-13 14:33N 32°06' W 081°07'4 3.9
2015-Aug-13 13:33N 32°05' W 081°03'8 7.8
2015-Aug-13 12:33N 32°02' W 080°54'1312.9
2015-Aug-13 11:34N 31°57' W 080°40'8 8.2
2015-Aug-13 10:33N 31°57' W 080°30'12 8.6
2015-Aug-13 09:12N 31°60' W 080°17'25516.3
2015-Aug-12 17:29N 34°18' W 076°01'1816.3
2015-Aug-12 16:23N 34°30' W 075°45'1616.9
2015-Aug-12 15:27N 34°41' W 075°31'135 4.2
2015-Aug-11 07:29N 36°55' W 075°54'6013.4
2015-Aug-11 03:03N 36°50' W 074°40'  

Dump ship's entire track history